createdAt,value
2019-03-22T00:02:13.141Z,97.69
2019-03-22T00:04:39.445Z,97.79
2019-03-22T00:07:05.757Z,97.91
2019-03-22T00:09:32.059Z,97.81
2019-03-22T00:11:58.367Z,97.69
2019-03-22T00:14:24.666Z,97.59
2019-03-22T00:16:50.975Z,97.54
2019-03-22T00:19:17.287Z,97.51
2019-03-22T00:21:43.616Z,97.43
2019-03-22T00:24:09.924Z,97.41
2019-03-22T00:26:36.235Z,97.47
2019-03-22T00:29:02.539Z,97.53
2019-03-22T00:31:28.847Z,97.54
2019-03-22T00:33:55.184Z,97.54
2019-03-22T00:36:21.482Z,97.49
2019-03-22T00:38:47.786Z,97.47
2019-03-22T00:41:14.092Z,97.51
2019-03-22T00:43:40.426Z,97.51
2019-03-22T00:46:06.743Z,97.50
2019-03-22T00:48:33.039Z,97.56
2019-03-22T00:50:59.348Z,97.58
2019-03-22T00:53:25.647Z,97.59
2019-03-22T00:55:51.961Z,97.65
2019-03-22T00:58:18.271Z,97.70
2019-03-22T01:00:44.578Z,97.66
2019-03-22T01:03:10.885Z,97.66
2019-03-22T01:05:37.195Z,97.68
2019-03-22T01:08:03.501Z,97.73
2019-03-22T01:10:29.815Z,97.70
2019-03-22T01:12:56.126Z,97.75
2019-03-22T01:15:22.432Z,97.78
2019-03-22T01:17:48.743Z,97.78
2019-03-22T01:20:15.057Z,97.81
2019-03-22T01:22:41.364Z,97.76
2019-03-22T01:25:07.666Z,97.63
2019-03-22T01:27:40.254Z,97.48
2019-03-22T01:30:00.394Z,97.35
2019-03-22T01:32:26.580Z,97.25
2019-03-22T01:34:52.887Z,97.25
2019-03-22T01:37:19.190Z,97.22
2019-03-22T01:39:45.495Z,97.21
2019-03-22T01:42:11.804Z,97.30
2019-03-22T01:44:38.121Z,97.35
2019-03-22T01:47:04.426Z,97.30
2019-03-22T01:49:30.756Z,97.39
2019-03-22T01:51:57.038Z,97.48
2019-03-22T01:54:23.346Z,97.58
2019-03-22T01:56:49.659Z,97.55
2019-03-22T01:59:15.970Z,97.69
2019-03-22T02:01:42.273Z,97.85
2019-03-22T02:04:08.575Z,98.04
2019-03-22T02:06:34.879Z,98.12
2019-03-22T02:09:01.183Z,98.22
2019-03-22T02:11:27.490Z,98.25
2019-03-22T02:13:53.800Z,98.27
2019-03-22T02:16:20.107Z,98.28
2019-03-22T02:18:46.443Z,98.39
2019-03-22T02:21:12.724Z,98.53
2019-03-22T02:23:39.029Z,98.58
2019-03-22T02:26:05.334Z,98.60
2019-03-22T02:28:31.642Z,98.75
2019-03-22T02:30:57.948Z,98.85
2019-03-22T02:33:24.258Z,98.93
2019-03-22T02:35:50.572Z,98.91
2019-03-22T02:38:16.881Z,98.95
2019-03-22T02:40:43.193Z,99.08
2019-03-22T02:43:09.507Z,99.07
2019-03-22T02:45:35.811Z,99.17
2019-03-22T02:48:02.120Z,99.18
2019-03-22T02:50:28.435Z,99.15
2019-03-22T02:52:54.759Z,99.22
2019-03-22T02:55:21.058Z,99.41
2019-03-22T02:57:47.435Z,99.49
2019-03-22T03:00:13.665Z,99.64
2019-03-22T03:02:39.969Z,99.76
2019-03-22T03:05:06.281Z,99.79
2019-03-22T03:07:32.610Z,99.82
2019-03-22T03:09:58.917Z,99.81
2019-03-22T03:12:25.228Z,99.81
2019-03-22T03:14:51.531Z,99.75
2019-03-22T03:17:17.839Z,99.75
2019-03-22T03:19:44.156Z,99.73
2019-03-22T03:22:10.468Z,99.70
2019-03-22T03:24:36.780Z,99.73
2019-03-22T03:27:03.080Z,99.74
2019-03-22T03:29:29.388Z,99.69
2019-03-22T03:31:55.706Z,99.64
2019-03-22T03:34:22.029Z,99.55
2019-03-22T03:36:48.338Z,99.59
2019-03-22T03:39:14.643Z,99.51
2019-03-22T03:41:40.950Z,99.50
2019-03-22T03:44:07.256Z,99.55
2019-03-22T03:46:34.058Z,99.61
2019-03-22T03:49:00.371Z,99.64
2019-03-22T03:51:26.674Z,99.71
2019-03-22T03:53:52.978Z,99.85
2019-03-22T03:56:19.311Z,99.79
2019-03-22T03:58:52.207Z,99.79
2019-03-22T04:01:11.920Z,99.82
2019-03-22T04:03:38.240Z,99.86
2019-03-22T04:06:04.549Z,99.91
2019-03-22T04:08:30.865Z,100.00
2019-03-22T04:10:57.174Z,100.00
2019-03-22T04:13:23.493Z,100.00
2019-03-22T04:15:49.802Z,100.00
2019-03-22T04:18:16.115Z,100.00
2019-03-22T04:20:42.417Z,100.00
2019-03-22T04:23:08.731Z,100.00
2019-03-22T04:25:35.041Z,100.00
2019-03-22T04:28:01.340Z,100.00
2019-03-22T04:30:27.651Z,100.00
2019-03-22T04:32:54.115Z,100.00
2019-03-22T04:35:20.427Z,100.00
2019-03-22T04:37:46.743Z,100.00
2019-03-22T04:40:13.079Z,100.00
2019-03-22T04:42:39.385Z,100.00
2019-03-22T04:45:05.683Z,100.00
2019-03-22T04:47:31.996Z,100.00
2019-03-22T04:49:58.306Z,100.00
2019-03-22T04:52:24.616Z,100.00
2019-03-22T04:54:50.922Z,100.00
2019-03-22T04:57:17.297Z,100.00
2019-03-22T04:59:43.558Z,100.00
2019-03-22T05:02:09.862Z,100.00
2019-03-22T05:04:36.186Z,100.00
2019-03-22T05:07:02.493Z,100.00
2019-03-22T05:09:28.802Z,100.00
2019-03-22T05:11:55.135Z,100.00
2019-03-22T05:14:21.443Z,100.00
2019-03-22T05:16:47.759Z,100.00
2019-03-22T05:19:14.065Z,100.00
2019-03-22T05:21:40.377Z,100.00
2019-03-22T05:24:06.685Z,100.00
2019-03-22T05:26:33.018Z,100.00
2019-03-22T05:28:59.332Z,100.00
2019-03-22T05:31:25.645Z,100.00
2019-03-22T05:33:51.959Z,100.00
2019-03-22T05:36:18.265Z,100.00
2019-03-22T05:38:44.582Z,100.00
2019-03-22T05:41:10.892Z,100.00
2019-03-22T05:43:37.213Z,100.00
2019-03-22T05:46:03.522Z,100.00
2019-03-22T05:48:29.846Z,100.00
2019-03-22T05:50:56.150Z,100.00
2019-03-22T05:53:22.455Z,100.00
2019-03-22T05:55:48.791Z,100.00
2019-03-22T05:58:15.104Z,100.00
2019-03-22T06:00:41.411Z,99.60
2019-03-22T06:03:07.723Z,94.43
2019-03-22T06:05:34.043Z,91.02
2019-03-22T06:08:00.350Z,90.12
2019-03-22T06:10:26.664Z,83.74
2019-03-22T06:12:52.977Z,80.49
2019-03-22T06:15:19.308Z,79.63
2019-03-22T06:17:51.535Z,79.00
2019-03-22T06:20:11.934Z,78.43
2019-03-22T06:22:38.244Z,78.21
2019-03-22T06:25:04.550Z,77.80
2019-03-22T06:27:30.865Z,76.69
2019-03-22T06:29:57.174Z,74.09
2019-03-22T06:32:23.699Z,76.26
2019-03-22T06:34:50.009Z,75.74
2019-03-22T06:37:16.389Z,75.22
2019-03-22T06:39:42.742Z,72.51
2019-03-22T06:42:09.021Z,71.67
2019-03-22T06:44:35.355Z,71.35
2019-03-22T06:47:01.663Z,71.26
2019-03-22T06:49:27.973Z,71.52
2019-03-22T06:51:54.289Z,70.89
2019-03-22T06:54:30.924Z,69.68
2019-03-22T06:56:46.940Z,69.14
2019-03-22T06:59:13.249Z,68.99
2019-03-22T07:01:39.578Z,68.37
2019-03-22T07:04:05.889Z,67.82
2019-03-22T07:06:32.235Z,68.30
2019-03-22T07:08:58.569Z,68.45
2019-03-22T07:11:24.881Z,67.31
2019-03-22T07:13:51.187Z,66.61
2019-03-22T07:16:17.532Z,64.64
2019-03-22T07:18:43.841Z,64.47
2019-03-22T07:21:10.165Z,65.19
2019-03-22T07:23:36.610Z,64.99
2019-03-22T07:26:03.038Z,64.56
2019-03-22T07:28:29.402Z,63.54
2019-03-22T07:30:55.713Z,61.97
2019-03-22T07:33:22.033Z,63.17
2019-03-22T07:35:48.342Z,64.25
2019-03-22T07:38:14.652Z,63.97
2019-03-22T07:40:40.957Z,63.22
2019-03-22T07:43:07.266Z,64.10
2019-03-22T07:45:33.578Z,64.96
2019-03-22T07:47:59.908Z,64.25
2019-03-22T07:50:26.253Z,63.21
2019-03-22T07:52:52.555Z,61.99
2019-03-22T07:55:18.874Z,61.53
2019-03-22T07:57:45.176Z,61.49
2019-03-22T08:00:11.487Z,61.31
2019-03-22T08:02:37.811Z,59.73
2019-03-22T08:05:04.201Z,61.42
2019-03-22T08:07:30.511Z,61.81
2019-03-22T08:09:56.910Z,61.22
2019-03-22T08:12:23.179Z,61.08
2019-03-22T08:14:49.520Z,60.30
2019-03-22T08:17:15.790Z,61.38
2019-03-22T08:19:42.103Z,60.82
2019-03-22T08:22:08.406Z,60.12
2019-03-22T08:24:34.725Z,58.34
2019-03-22T08:27:01.024Z,59.30
2019-03-22T08:29:27.336Z,57.84
2019-03-22T08:31:53.642Z,57.92
2019-03-22T08:34:19.948Z,58.08
2019-03-22T08:36:46.258Z,57.07
2019-03-22T08:39:12.684Z,56.76
2019-03-22T08:41:39.014Z,56.92
2019-03-22T08:44:05.368Z,57.18
2019-03-22T08:46:31.677Z,55.38
2019-03-22T08:48:58.008Z,55.76
2019-03-22T08:51:24.288Z,56.89
2019-03-22T08:53:55.509Z,57.25
2019-03-22T08:56:16.950Z,55.67
2019-03-22T08:58:43.220Z,55.58
2019-03-22T09:01:09.539Z,55.09
2019-03-22T09:03:35.833Z,55.51
2019-03-22T09:06:02.163Z,54.72
2019-03-22T09:08:28.472Z,52.26
2019-03-22T09:10:54.779Z,52.58
2019-03-22T09:13:21.122Z,53.91
2019-03-22T09:15:47.407Z,51.25
2019-03-22T09:18:15.546Z,51.25
2019-03-22T09:20:40.014Z,50.95
2019-03-22T09:23:06.328Z,51.25
2019-03-22T09:25:32.702Z,50.67
2019-03-22T09:27:59.094Z,49.45
2019-03-22T09:30:25.395Z,49.98
2019-03-22T09:32:51.730Z,48.52
2019-03-22T09:35:18.094Z,48.73
2019-03-22T09:37:44.401Z,49.61
2019-03-22T09:40:10.683Z,48.89
2019-03-22T09:42:36.998Z,49.39
2019-03-22T09:45:03.344Z,49.58
2019-03-22T09:47:29.628Z,48.18
2019-03-22T09:49:56.013Z,47.53
2019-03-22T09:52:22.356Z,48.82
2019-03-22T09:54:48.643Z,48.13
2019-03-22T09:57:14.984Z,46.56
2019-03-22T09:59:41.283Z,47.42
2019-03-22T10:02:07.576Z,44.27
2019-03-22T10:04:33.899Z,44.34
2019-03-22T10:07:00.205Z,45.28
2019-03-22T10:09:26.573Z,45.93
2019-03-22T10:11:52.928Z,47.32
2019-03-22T10:14:21.397Z,45.32
2019-03-22T10:16:47.586Z,44.42
2019-03-22T10:19:11.808Z,45.04
2019-03-22T10:21:38.144Z,43.06
2019-03-22T10:24:04.470Z,42.73
2019-03-22T10:26:30.749Z,42.93
2019-03-22T10:28:57.124Z,42.78
2019-03-22T10:31:36.131Z,42.11
2019-03-22T10:33:49.679Z,42.12
2019-03-22T10:36:16.088Z,41.14
2019-03-22T10:38:42.303Z,43.15
2019-03-22T10:41:08.640Z,43.25
2019-03-22T10:43:34.964Z,42.13
2019-03-22T10:46:01.229Z,42.96
2019-03-22T10:48:27.560Z,42.28
2019-03-22T10:50:53.906Z,43.11
2019-03-22T10:53:20.201Z,42.62
2019-03-22T10:55:46.518Z,41.59
2019-03-22T10:58:20.868Z,39.71
2019-03-22T11:00:39.147Z,39.78
2019-03-22T11:03:05.453Z,39.74
2019-03-22T11:05:31.804Z,39.86
2019-03-22T11:07:58.120Z,39.90
2019-03-22T11:10:24.488Z,39.44
2019-03-22T11:12:50.796Z,40.79
2019-03-22T11:15:17.127Z,41.21
2019-03-22T11:17:43.491Z,41.31
2019-03-22T11:20:09.810Z,41.18
2019-03-22T11:22:36.121Z,40.69
2019-03-22T11:25:02.458Z,40.97
2019-03-22T11:27:28.807Z,40.10
2019-03-22T11:29:55.121Z,40.33
2019-03-22T11:32:21.435Z,39.72
2019-03-22T11:34:47.754Z,39.78
2019-03-22T11:37:14.123Z,39.58
2019-03-22T11:39:40.439Z,38.62
2019-03-22T11:42:06.778Z,37.53
2019-03-22T11:44:33.083Z,37.54
2019-03-22T11:46:59.390Z,38.74
2019-03-22T11:49:25.699Z,38.20
2019-03-22T11:51:52.003Z,38.85
2019-03-22T11:54:18.335Z,38.59
2019-03-22T11:56:44.643Z,37.98
2019-03-22T11:59:10.956Z,37.07
2019-03-22T12:01:37.256Z,37.32
2019-03-22T12:04:03.564Z,38.09
2019-03-22T12:06:29.877Z,37.97
2019-03-22T12:08:56.184Z,37.86
2019-03-22T12:11:22.498Z,36.17
2019-03-22T12:13:48.841Z,36.30
2019-03-22T12:16:15.132Z,36.80
2019-03-22T12:18:41.436Z,37.58
2019-03-22T12:21:07.768Z,38.03
2019-03-22T12:23:34.081Z,36.29
2019-03-22T12:26:00.388Z,36.66
2019-03-22T12:28:26.695Z,36.33
2019-03-22T12:30:53.001Z,35.31
2019-03-22T12:33:19.313Z,35.66
2019-03-22T12:35:45.621Z,35.61
2019-03-22T12:38:11.935Z,36.31
2019-03-22T12:40:38.245Z,35.94
2019-03-22T12:43:04.553Z,35.59
2019-03-22T12:45:30.865Z,35.58
2019-03-22T12:47:57.177Z,36.04
2019-03-22T12:50:23.492Z,36.10
2019-03-22T12:52:49.796Z,36.80
2019-03-22T12:55:16.110Z,37.46
2019-03-22T12:57:42.469Z,37.77
2019-03-22T13:00:08.790Z,37.23
2019-03-22T13:02:41.982Z,37.40
2019-03-22T13:05:01.408Z,37.00
2019-03-22T13:07:27.733Z,35.49
2019-03-22T13:09:54.036Z,35.50
2019-03-22T13:12:20.361Z,35.36
2019-03-22T13:14:46.671Z,35.00
2019-03-22T13:17:12.985Z,34.97
2019-03-22T13:19:39.331Z,34.98
2019-03-22T13:22:05.662Z,35.03
2019-03-22T13:24:31.973Z,35.40
2019-03-22T13:26:58.289Z,35.75
2019-03-22T13:29:24.611Z,36.23
2019-03-22T13:31:50.920Z,36.16
2019-03-22T13:34:17.236Z,36.23
2019-03-22T13:36:43.541Z,35.63
2019-03-22T13:39:09.882Z,35.50
2019-03-22T13:41:36.189Z,35.46
2019-03-22T13:44:02.508Z,35.10
2019-03-22T13:46:28.813Z,34.77
2019-03-22T13:48:55.146Z,33.71
2019-03-22T13:51:21.490Z,34.14
2019-03-22T13:53:47.764Z,34.06
2019-03-22T13:56:14.079Z,33.58
2019-03-22T13:58:40.395Z,34.03
2019-03-22T14:01:06.706Z,34.33
2019-03-22T14:03:33.276Z,34.86
2019-03-22T14:05:59.333Z,33.92
2019-03-22T14:08:27.070Z,33.88
2019-03-22T14:10:51.953Z,33.55
2019-03-22T14:13:18.263Z,33.65
2019-03-22T14:15:44.595Z,32.68
2019-03-22T14:18:10.914Z,32.76
2019-03-22T14:20:37.220Z,32.80
2019-03-22T14:23:03.539Z,33.37
2019-03-22T14:25:29.848Z,34.80
2019-03-22T14:27:56.168Z,38.45
2019-03-22T14:30:22.481Z,38.53
2019-03-22T14:32:48.793Z,37.99
2019-03-22T14:35:15.101Z,39.64
2019-03-22T14:37:41.409Z,39.97
2019-03-22T14:40:07.716Z,37.82
2019-03-22T14:42:34.048Z,36.25
2019-03-22T14:45:00.380Z,35.94
2019-03-22T14:47:26.688Z,37.25
2019-03-22T14:49:52.998Z,36.44
2019-03-22T14:52:19.310Z,36.42
2019-03-22T14:54:45.623Z,37.64
2019-03-22T14:57:11.934Z,40.33
2019-03-22T14:59:38.248Z,42.34
2019-03-22T15:02:04.564Z,43.00
2019-03-22T15:04:30.893Z,42.71
2019-03-22T15:06:57.202Z,43.13
2019-03-22T15:09:23.509Z,41.41
2019-03-22T15:11:49.825Z,41.65
2019-03-22T15:14:16.133Z,41.78
2019-03-22T15:16:42.454Z,42.11
2019-03-22T15:19:08.767Z,41.86
2019-03-22T15:21:35.098Z,41.80
2019-03-22T15:24:03.625Z,40.50
2019-03-22T15:26:27.753Z,39.89
2019-03-22T15:28:54.095Z,41.30
2019-03-22T15:31:20.381Z,41.81
2019-03-22T15:33:46.770Z,40.99
2019-03-22T15:36:13.014Z,40.35
2019-03-22T15:38:39.465Z,38.30
2019-03-22T15:41:05.701Z,36.63
2019-03-22T15:43:32.010Z,35.79
2019-03-22T15:45:58.318Z,35.09
2019-03-22T15:48:24.636Z,35.78
2019-03-22T15:50:50.927Z,37.51
2019-03-22T15:53:17.236Z,39.74
2019-03-22T15:55:43.549Z,39.38
2019-03-22T15:58:09.867Z,39.06
2019-03-22T16:00:36.172Z,39.41
2019-03-22T16:03:02.485Z,39.84
2019-03-22T16:05:28.793Z,40.00
2019-03-22T16:07:55.109Z,39.23
2019-03-22T16:10:21.421Z,36.81
2019-03-22T16:12:47.725Z,38.49
2019-03-22T16:15:14.035Z,38.01
2019-03-22T16:17:40.342Z,38.40
2019-03-22T16:20:06.668Z,38.72
2019-03-22T16:22:32.976Z,38.26
2019-03-22T16:24:59.289Z,37.99
2019-03-22T16:27:25.596Z,38.76
2019-03-22T16:29:51.910Z,38.58
2019-03-22T16:32:18.222Z,38.44
2019-03-22T16:34:44.545Z,38.32
2019-03-22T16:37:10.859Z,38.19
2019-03-22T16:39:37.198Z,38.39
2019-03-22T16:42:03.473Z,38.67
2019-03-22T16:44:29.788Z,38.19
2019-03-22T16:46:56.110Z,38.41
2019-03-22T16:49:22.426Z,38.67
2019-03-22T16:51:48.731Z,38.63
2019-03-22T16:54:15.156Z,39.25
2019-03-22T16:56:41.469Z,39.17
2019-03-22T16:59:07.813Z,39.03
2019-03-22T17:01:34.120Z,38.95
2019-03-22T17:04:04.495Z,39.17
2019-03-22T17:06:26.802Z,38.77
2019-03-22T17:08:53.112Z,38.34
2019-03-22T17:11:19.434Z,38.21
2019-03-22T17:13:45.737Z,38.07
2019-03-22T17:16:12.047Z,38.39
2019-03-22T17:18:38.352Z,38.12
2019-03-22T17:21:04.666Z,37.78
2019-03-22T17:23:30.973Z,38.12
2019-03-22T17:25:57.305Z,39.17
2019-03-22T17:28:23.616Z,38.88
2019-03-22T17:30:49.939Z,38.54
2019-03-22T17:33:16.250Z,38.56
2019-03-22T17:35:42.561Z,39.14
2019-03-22T17:38:09.091Z,39.03
2019-03-22T17:40:35.467Z,39.62
2019-03-22T17:43:01.846Z,39.27
2019-03-22T17:45:28.158Z,38.59
2019-03-22T17:47:54.476Z,38.25
2019-03-22T17:50:20.788Z,38.06
2019-03-22T17:52:47.115Z,38.15
2019-03-22T17:55:13.426Z,38.29
2019-03-22T17:57:39.733Z,38.04
2019-03-22T18:00:06.041Z,37.96
2019-03-22T18:02:32.348Z,37.95
2019-03-22T18:04:58.675Z,38.26
2019-03-22T18:07:24.971Z,38.39
2019-03-22T18:09:51.286Z,38.33
2019-03-22T18:12:17.660Z,38.53
2019-03-22T18:14:43.985Z,39.06
2019-03-22T18:17:10.313Z,38.93
2019-03-22T18:19:36.645Z,38.81
2019-03-22T18:22:02.952Z,38.83
2019-03-22T18:24:29.263Z,38.96
2019-03-22T18:26:55.572Z,39.15
2019-03-22T18:29:21.890Z,39.44
2019-03-22T18:31:48.207Z,39.49
2019-03-22T18:34:18.413Z,39.76
2019-03-22T18:36:44.720Z,39.55
2019-03-22T18:39:11.048Z,39.73
2019-03-22T18:41:37.364Z,39.59
2019-03-22T18:44:03.675Z,39.82
2019-03-22T18:46:30.064Z,39.83
2019-03-22T18:48:56.439Z,39.78
2019-03-22T18:51:22.746Z,39.85
2019-03-22T18:53:49.057Z,39.81
2019-03-22T18:56:15.359Z,39.91
2019-03-22T18:58:41.669Z,39.97
2019-03-22T19:01:07.980Z,40.01
2019-03-22T19:03:34.291Z,40.11
2019-03-22T19:06:00.613Z,40.23
2019-03-22T19:08:26.932Z,40.33
2019-03-22T19:10:53.231Z,40.39
2019-03-22T19:13:19.535Z,40.18
2019-03-22T19:15:45.845Z,40.30
2019-03-22T19:18:12.154Z,40.51
2019-03-22T19:20:38.464Z,40.48
2019-03-22T19:23:04.790Z,40.31
2019-03-22T19:25:31.107Z,40.53
2019-03-22T19:27:57.417Z,40.73
2019-03-22T19:30:23.755Z,40.61
2019-03-22T19:32:50.120Z,40.72
2019-03-22T19:35:16.427Z,40.68
2019-03-22T19:37:42.733Z,40.63
2019-03-22T19:40:09.075Z,40.74
2019-03-22T19:42:35.353Z,40.91
2019-03-22T19:45:01.656Z,40.81
2019-03-22T19:47:27.967Z,40.73
2019-03-22T19:49:54.279Z,40.81
2019-03-22T19:52:20.583Z,41.03
2019-03-22T19:54:46.903Z,41.11
2019-03-22T19:57:13.220Z,41.09
2019-03-22T19:59:39.531Z,41.00
2019-03-22T20:02:05.853Z,41.25
2019-03-22T20:04:32.188Z,41.47
2019-03-22T20:06:58.494Z,45.88
2019-03-22T20:09:24.809Z,50.83
2019-03-22T20:11:51.140Z,51.23
2019-03-22T20:14:17.440Z,51.39
2019-03-22T20:16:43.774Z,51.78
2019-03-22T20:19:10.113Z,52.22
2019-03-22T20:21:36.400Z,52.67
2019-03-22T20:24:02.804Z,53.16
2019-03-22T20:26:29.115Z,53.65
2019-03-22T20:28:55.443Z,54.13
2019-03-22T20:31:21.819Z,54.67
2019-03-22T20:33:48.140Z,55.15
2019-03-22T20:36:14.501Z,55.65
2019-03-22T20:38:40.873Z,56.14
2019-03-22T20:41:07.174Z,56.66
2019-03-22T20:43:33.505Z,57.25
2019-03-22T20:45:59.809Z,57.82
2019-03-22T20:48:26.268Z,58.29
2019-03-22T20:50:52.728Z,58.85
2019-03-22T20:53:21.559Z,59.38
2019-03-22T20:55:48.183Z,59.88
2019-03-22T20:58:16.409Z,60.42
2019-03-22T21:00:47.560Z,60.92
2019-03-22T21:03:20.524Z,61.46
2019-03-22T21:05:45.683Z,62.05
2019-03-22T21:08:12.061Z,62.52
2019-03-22T21:10:38.309Z,63.06
2019-03-22T21:13:04.641Z,63.57
2019-03-22T21:15:30.959Z,64.08
2019-03-22T21:17:57.280Z,64.58
2019-03-22T21:20:23.609Z,65.09
2019-03-22T21:22:49.919Z,65.56
2019-03-22T21:25:16.226Z,66.11
2019-03-22T21:27:42.562Z,66.57
2019-03-22T21:30:08.905Z,67.03
2019-03-22T21:32:44.713Z,67.46
2019-03-22T21:35:01.555Z,67.96
2019-03-22T21:37:27.837Z,68.38
2019-03-22T21:39:54.144Z,68.82
2019-03-22T21:42:20.464Z,69.21
2019-03-22T21:44:46.778Z,69.70
2019-03-22T21:47:13.086Z,70.16
2019-03-22T21:49:39.398Z,70.61
2019-03-22T21:52:05.695Z,70.99
2019-03-22T21:54:32.027Z,71.43
2019-03-22T21:56:58.416Z,71.83
2019-03-22T21:59:24.725Z,72.13
2019-03-22T22:01:51.063Z,72.51
2019-03-22T22:04:17.364Z,72.89
2019-03-22T22:06:43.678Z,73.35
2019-03-22T22:09:09.998Z,73.74
2019-03-22T22:11:36.292Z,74.08
2019-03-22T22:14:02.600Z,74.47
2019-03-22T22:16:28.925Z,74.85
2019-03-22T22:18:55.241Z,75.21
2019-03-22T22:21:21.545Z,75.56
2019-03-22T22:23:47.855Z,75.90
2019-03-22T22:26:14.167Z,76.15
2019-03-22T22:28:40.477Z,76.56
2019-03-22T22:31:06.794Z,76.95
2019-03-22T22:33:33.105Z,77.30
2019-03-22T22:35:59.412Z,77.66
2019-03-22T22:38:25.716Z,78.01
2019-03-22T22:40:52.093Z,78.43
2019-03-22T22:43:18.433Z,78.77
2019-03-22T22:45:44.749Z,79.09
2019-03-22T22:48:11.063Z,79.42
2019-03-22T22:50:37.368Z,79.71
2019-03-22T22:53:03.682Z,80.04
2019-03-22T22:55:29.985Z,80.33
2019-03-22T22:57:56.295Z,80.59
2019-03-22T23:00:22.718Z,80.79
2019-03-22T23:02:49.047Z,81.09
2019-03-22T23:05:15.349Z,81.24
2019-03-22T23:07:41.682Z,81.42
2019-03-22T23:10:07.993Z,81.68
2019-03-22T23:12:34.325Z,81.94
2019-03-22T23:15:00.627Z,82.22
2019-03-22T23:17:26.942Z,82.51
2019-03-22T23:19:53.250Z,82.75
2019-03-22T23:22:19.622Z,82.97
2019-03-22T23:24:45.934Z,83.14
2019-03-22T23:27:12.241Z,83.36
2019-03-22T23:29:38.556Z,83.57
2019-03-22T23:32:04.859Z,83.80
2019-03-22T23:34:31.168Z,84.09
2019-03-22T23:36:57.479Z,84.35
2019-03-22T23:39:23.816Z,84.50
2019-03-22T23:41:50.123Z,84.63
2019-03-22T23:44:16.514Z,84.67
2019-03-22T23:46:42.823Z,84.87
2019-03-22T23:49:09.161Z,85.09
2019-03-22T23:51:35.435Z,85.24
2019-03-22T23:54:01.744Z,85.41
2019-03-22T23:56:28.059Z,85.60
2019-03-22T23:58:54.364Z,85.73
